Hauptseite
METAR-TAF:

METAR-TAF

Flughäfen :

William H. Morse State Airport

Bennington, Vermont, Vereinigte Staaten

Breite: 42-53-24N, Länge: 073-14-47W, Höhe: 252 m

Beobachtung

Neuester Wetterbericht von vor 1 Stunde und 3 Minuten, um 20:54 UTC
Wind 10 kt aus Süd, Böen bis zu 18 kt
Temperatur 9°C
Luftfeuchtigkeit 81%
Luftdruck 1008 hPa
Sichtweite: 14.5 km
Leicht bewölkt in der Höhe von 1800 ft
Durchbrochene Bewölkung in der Höhe von 2600 ft
Geschlossene Wolkendecke in der Höhe von 7500 ft
Leichtregen

METAR: KDDH 092054Z AUTO 17010G18KT 9SM -RA FEW018 BKN026 OVC075 09/06 A2978 RMK AO2 SLP088 P0006 60009 T00890061 56037

Zeit: 16:57 (21:57 UTC)


TAF: fehlend

Wetterbeobachtungen und Prognosen von mehr als 4000 Flughäfen (METAR und TAF Bericht).

Die verfügbaren Stationen werden durch gelbe und rote Markierungen auf der Karte dargestellt.

Führen Sie die Maus auf sie, um den Namen der Station zu sehen.

Darauf klicken, um die Beobachtung von Wetterbeobachtungen und Prognosen zu sehen.

Um die Karte zu ändern : klicken Sie auf den grünen Tasten mit einem schwarzen Kreuz Zum Vergrößern, auf den grünen Button mit einem Gedankenstrich zu verkleinern, oder auf die grünen Pfeile für benachbarte Karten.


METAR-TAF: